createdAt,value
2023-11-23T00:01:11.512Z,10.23
2023-11-23T00:03:39.758Z,10.18
2023-11-23T00:06:10.591Z,10.15
2023-11-23T00:08:42.480Z,10.06
2023-11-23T00:11:11.360Z,10.02
2023-11-23T00:13:39.539Z,10.04
2023-11-23T00:16:08.897Z,9.98
2023-11-23T00:18:37.166Z,10.05
2023-11-23T00:21:05.552Z,10.09
2023-11-23T00:23:35.157Z,10.09
2023-11-23T00:26:04.731Z,10.09
2023-11-23T00:28:31.890Z,10.15
2023-11-23T00:31:00.570Z,10.10
2023-11-23T00:33:28.879Z,9.97
2023-11-23T00:35:57.214Z,9.96
2023-11-23T00:38:25.361Z,10.01
2023-11-23T00:40:55.041Z,10.05
2023-11-23T00:43:23.219Z,10.00
2023-11-23T00:45:51.645Z,10.01
2023-11-23T00:48:20.092Z,10.03
2023-11-23T00:51:06.874Z,9.92
2023-11-23T00:53:35.160Z,9.92
2023-11-23T00:56:05.824Z,9.82
2023-11-23T00:58:34.108Z,9.91
2023-11-23T01:01:03.311Z,10.00
2023-11-23T01:03:33.568Z,9.97
2023-11-23T01:06:02.102Z,9.85
2023-11-23T01:08:30.254Z,9.78
2023-11-23T01:11:00.457Z,9.85
2023-11-23T01:13:30.520Z,9.82
2023-11-23T01:15:58.966Z,9.82
2023-11-23T01:18:27.250Z,9.76
2023-11-23T01:20:55.575Z,9.75
2023-11-23T01:23:23.883Z,9.70
2023-11-23T01:25:52.072Z,9.68
2023-11-23T01:28:20.278Z,9.74
2023-11-23T01:30:49.956Z,9.70
2023-11-23T01:33:18.217Z,9.72
2023-11-23T01:35:46.502Z,9.71
2023-11-23T01:38:15.049Z,9.67
2023-11-23T01:40:43.263Z,9.66
2023-11-23T01:43:11.558Z,9.65
2023-11-23T01:45:40.216Z,9.68
2023-11-23T01:48:11.052Z,9.62
2023-11-23T01:50:42.538Z,9.67
2023-11-23T01:53:11.539Z,9.63
2023-11-23T01:55:40.345Z,9.63
2023-11-23T01:58:10.651Z,9.59
2023-11-23T02:00:38.922Z,9.68
2023-11-23T02:03:07.720Z,9.77
2023-11-23T02:05:37.381Z,9.89
2023-11-23T02:08:06.686Z,9.91
2023-11-23T02:10:34.932Z,9.88
2023-11-23T02:13:04.384Z,9.84
2023-11-23T02:15:33.017Z,9.96
2023-11-23T02:18:02.767Z,9.97
2023-11-23T02:20:31.089Z,10.06
2023-11-23T02:23:02.025Z,10.06
2023-11-23T02:25:30.911Z,10.05
2023-11-23T02:27:59.091Z,10.04
2023-11-23T02:30:27.292Z,10.07
2023-11-23T02:32:57.674Z,10.09
2023-11-23T02:35:26.485Z,10.09
2023-11-23T02:37:54.908Z,10.09
2023-11-23T02:40:23.141Z,9.94
2023-11-23T02:42:52.854Z,9.76
2023-11-23T02:45:21.740Z,9.73
2023-11-23T02:47:50.835Z,9.71
2023-11-23T02:50:19.968Z,9.61
2023-11-23T02:52:48.394Z,9.55
2023-11-23T02:55:16.750Z,9.55
2023-11-23T02:57:44.976Z,9.66
2023-11-23T03:00:15.301Z,9.69
2023-11-23T03:02:43.554Z,9.68
2023-11-23T03:05:12.691Z,9.80
2023-11-23T03:07:41.409Z,9.81
2023-11-23T03:10:10.850Z,9.82
2023-11-23T03:12:39.593Z,9.81
2023-11-23T03:15:09.016Z,9.85
2023-11-23T03:17:38.808Z,9.90
2023-11-23T03:20:08.441Z,9.88
2023-11-23T03:22:36.759Z,9.86
2023-11-23T03:25:05.728Z,9.77
2023-11-23T03:27:34.393Z,9.76
2023-11-23T03:30:02.675Z,9.71
2023-11-23T03:32:31.860Z,9.72
2023-11-23T03:35:02.011Z,9.58
2023-11-23T03:37:30.388Z,9.59
2023-11-23T03:39:59.865Z,9.53
2023-11-23T03:42:28.001Z,9.44
2023-11-23T03:44:56.201Z,9.44
2023-11-23T03:47:24.753Z,9.48
2023-11-23T03:49:53.362Z,9.50
2023-11-23T03:52:23.068Z,9.55
2023-11-23T03:54:51.893Z,9.34
2023-11-23T03:57:20.234Z,9.41
2023-11-23T03:59:48.457Z,9.45
2023-11-23T04:02:16.913Z,9.48
2023-11-23T04:04:45.576Z,9.44
2023-11-23T04:07:14.195Z,9.49
2023-11-23T04:09:43.804Z,9.49
2023-11-23T04:12:12.081Z,9.46
2023-11-23T04:14:40.404Z,9.48
2023-11-23T04:17:08.648Z,9.50
2023-11-23T04:19:36.880Z,9.46
2023-11-23T04:22:08.054Z,9.43
2023-11-23T04:24:39.456Z,9.40
2023-11-23T04:27:09.851Z,9.31
2023-11-23T04:29:37.976Z,9.28
2023-11-23T04:32:07.645Z,9.23
2023-11-23T04:34:36.486Z,9.29
2023-11-23T04:37:06.146Z,9.26
2023-11-23T04:39:34.390Z,9.25
2023-11-23T04:42:03.586Z,9.20
2023-11-23T04:44:33.221Z,9.06
2023-11-23T04:47:01.550Z,8.97
2023-11-23T04:49:29.819Z,9.02
2023-11-23T04:51:59.012Z,9.04
2023-11-23T04:54:27.271Z,8.90
2023-11-23T04:56:55.508Z,8.85
2023-11-23T04:59:23.769Z,8.90
2023-11-23T05:01:53.510Z,8.78
2023-11-23T05:04:22.283Z,8.78
2023-11-23T05:06:50.943Z,8.76
2023-11-23T05:09:19.245Z,8.68
2023-11-23T05:11:47.527Z,8.54
2023-11-23T05:14:16.180Z,8.55
2023-11-23T05:16:44.545Z,8.54
2023-11-23T05:19:21.537Z,8.53
2023-11-23T05:21:55.789Z,8.44
2023-11-23T05:24:25.891Z,8.46
2023-11-23T05:26:55.689Z,8.40
2023-11-23T05:29:24.011Z,8.35
2023-11-23T05:31:52.236Z,8.39
2023-11-23T05:34:21.794Z,8.39
2023-11-23T05:36:49.939Z,8.43
2023-11-23T05:39:18.945Z,8.44
2023-11-23T05:41:47.543Z,8.35
2023-11-23T05:44:15.816Z,8.33
2023-11-23T05:46:44.779Z,8.29
2023-11-23T05:49:13.337Z,8.33
2023-11-23T05:51:43.035Z,8.36
2023-11-23T05:54:11.319Z,8.30
2023-11-23T05:56:40.958Z,8.40
2023-11-23T05:59:09.291Z,8.37
2023-11-23T06:01:37.492Z,8.40
2023-11-23T06:04:06.771Z,8.42
2023-11-23T06:06:35.580Z,8.51
2023-11-23T06:09:05.895Z,8.49
2023-11-23T06:11:34.619Z,8.55
2023-11-23T06:14:02.923Z,8.62
2023-11-23T06:16:31.212Z,8.57
2023-11-23T06:19:02.608Z,8.53
2023-11-23T06:21:32.081Z,8.53
2023-11-23T06:24:01.148Z,8.58
2023-11-23T06:26:31.045Z,8.55
2023-11-23T06:28:59.663Z,8.53
2023-11-23T06:31:29.339Z,8.46
2023-11-23T06:33:57.662Z,8.56
2023-11-23T06:36:26.105Z,8.56
2023-11-23T06:38:55.254Z,8.56
2023-11-23T06:41:24.299Z,8.56
2023-11-23T06:43:57.456Z,8.58
2023-11-23T06:46:26.222Z,8.73
2023-11-23T06:48:54.470Z,8.88
2023-11-23T06:51:22.890Z,9.03
2023-11-23T06:53:51.336Z,9.14
2023-11-23T06:56:19.515Z,9.29
2023-11-23T06:58:48.683Z,9.47
2023-11-23T07:01:18.579Z,9.48
2023-11-23T07:03:47.194Z,9.42
2023-11-23T07:06:17.695Z,9.52
2023-11-23T07:08:45.909Z,9.54
2023-11-23T07:11:19.346Z,9.61
2023-11-23T07:13:48.810Z,9.40
2023-11-23T07:16:18.667Z,9.33
2023-11-23T07:18:46.857Z,9.16
2023-11-23T07:21:17.050Z,9.07
2023-11-23T07:23:45.457Z,9.00
2023-11-23T07:26:13.931Z,8.92
2023-11-23T07:28:42.130Z,8.75
2023-11-23T07:31:11.205Z,8.91
2023-11-23T07:33:40.889Z,8.73
2023-11-23T07:36:10.187Z,8.68
2023-11-23T07:38:38.391Z,8.58
2023-11-23T07:41:07.971Z,8.69
2023-11-23T07:43:36.207Z,8.85
2023-11-23T07:46:04.758Z,8.99
2023-11-23T07:48:33.038Z,9.01
2023-11-23T07:51:03.952Z,8.90
2023-11-23T07:53:32.346Z,8.78
2023-11-23T07:56:00.603Z,8.69
2023-11-23T07:58:28.810Z,8.85
2023-11-23T08:00:58.339Z,8.89
2023-11-23T08:03:26.784Z,8.82
2023-11-23T08:05:56.320Z,8.72
2023-11-23T08:08:26.168Z,8.70
2023-11-23T08:10:54.377Z,8.89
2023-11-23T08:13:22.610Z,9.09
2023-11-23T08:15:50.917Z,9.33
2023-11-23T08:18:20.138Z,9.50
2023-11-23T08:20:48.377Z,9.56
2023-11-23T08:23:16.666Z,9.66
2023-11-23T08:25:46.288Z,9.61
2023-11-23T08:28:14.513Z,9.70
2023-11-23T08:30:42.819Z,9.77
2023-11-23T08:33:11.269Z,9.41
2023-11-23T08:35:39.446Z,9.30
2023-11-23T08:38:07.789Z,9.36
2023-11-23T08:41:05.721Z,9.37
2023-11-23T08:43:34.485Z,9.41
2023-11-23T08:46:04.082Z,9.26
2023-11-23T08:48:32.274Z,9.08
2023-11-23T08:51:03.022Z,8.93
2023-11-23T08:53:31.471Z,8.70
2023-11-23T08:55:59.710Z,8.61
2023-11-23T08:58:29.382Z,8.73
2023-11-23T09:00:57.579Z,8.51
2023-11-23T09:03:26.060Z,8.77
2023-11-23T09:05:54.440Z,8.70
2023-11-23T09:08:23.095Z,8.81
2023-11-23T09:10:53.301Z,8.76
2023-11-23T09:13:21.590Z,8.63
2023-11-23T09:15:51.313Z,8.79
2023-11-23T09:18:19.683Z,9.00
2023-11-23T09:20:49.218Z,9.10
2023-11-23T09:23:18.238Z,9.28
2023-11-23T09:25:47.888Z,9.32
2023-11-23T09:28:16.595Z,9.12
2023-11-23T09:30:45.292Z,8.83
2023-11-23T09:33:16.563Z,8.99
2023-11-23T09:35:46.393Z,9.09
2023-11-23T09:38:14.859Z,9.04
2023-11-23T09:40:43.663Z,8.92
2023-11-23T09:43:11.960Z,8.92
2023-11-23T09:45:40.662Z,8.74
2023-11-23T09:48:11.263Z,8.77
2023-11-23T09:50:42.674Z,8.82
2023-11-23T09:53:14.746Z,9.01
2023-11-23T09:55:43.483Z,9.10
2023-11-23T09:58:12.512Z,9.16
2023-11-23T10:00:41.256Z,9.35
2023-11-23T10:03:10.250Z,9.37
2023-11-23T10:05:40.106Z,9.38
2023-11-23T10:08:11.805Z,9.53
2023-11-23T10:10:40.479Z,9.66
2023-11-23T10:13:10.463Z,9.26
2023-11-23T10:15:39.115Z,9.03
2023-11-23T10:18:08.361Z,8.90
2023-11-23T10:20:39.992Z,9.02
2023-11-23T10:23:10.410Z,8.88
2023-11-23T10:25:38.730Z,9.05
2023-11-23T10:28:07.316Z,9.27
2023-11-23T10:30:39.361Z,9.52
2023-11-23T10:33:11.401Z,9.65
2023-11-23T10:35:43.388Z,9.71
2023-11-23T10:38:16.916Z,9.76
2023-11-23T10:40:46.755Z,9.53
2023-11-23T10:43:15.833Z,9.57
2023-11-23T10:45:47.193Z,9.49
2023-11-23T10:48:18.667Z,9.47
2023-11-23T10:50:47.981Z,9.35
2023-11-23T10:53:18.391Z,8.94
2023-11-23T10:55:50.795Z,8.89
2023-11-23T10:58:21.272Z,8.92
2023-11-23T11:00:50.255Z,8.84
2023-11-23T11:03:22.284Z,8.74
2023-11-23T11:05:54.583Z,8.84
2023-11-23T11:08:28.282Z,9.19
2023-11-23T11:10:56.631Z,9.40
2023-11-23T11:13:26.723Z,9.48
2023-11-23T11:15:58.307Z,9.65
2023-11-23T11:18:28.011Z,9.61
2023-11-23T11:21:11.585Z,9.37
2023-11-23T11:23:42.926Z,9.41
2023-11-23T11:26:13.016Z,9.15
2023-11-23T11:28:41.974Z,8.94
2023-11-23T11:31:16.345Z,8.92
2023-11-23T11:33:44.688Z,9.02
2023-11-23T11:36:14.557Z,9.11
2023-11-23T11:38:55.682Z,9.10
2023-11-23T11:41:27.620Z,9.21
2023-11-23T11:43:56.905Z,9.42
2023-11-23T11:46:25.157Z,9.59
2023-11-23T11:48:53.395Z,9.47
2023-11-23T11:51:21.705Z,9.24
2023-11-23T11:53:51.680Z,8.99
2023-11-23T11:56:20.573Z,8.93
2023-11-23T11:58:48.979Z,8.98
2023-11-23T12:01:17.285Z,9.09
2023-11-23T12:03:47.029Z,8.97
2023-11-23T12:06:16.361Z,9.21
2023-11-23T12:08:46.080Z,9.11
2023-11-23T12:11:28.074Z,9.01
2023-11-23T12:13:58.531Z,9.07
2023-11-23T12:16:35.267Z,8.84
2023-11-23T12:19:03.741Z,9.00
2023-11-23T12:21:32.524Z,8.80
2023-11-23T12:24:01.901Z,8.77
2023-11-23T12:26:34.867Z,8.91
2023-11-23T12:29:04.175Z,8.78
2023-11-23T12:31:33.798Z,8.81
2023-11-23T12:34:02.471Z,8.88
2023-11-23T12:36:30.641Z,8.86
2023-11-23T12:38:59.190Z,8.70
2023-11-23T12:41:27.334Z,9.03
2023-11-23T12:43:56.988Z,9.30
2023-11-23T12:46:25.342Z,9.35
2023-11-23T12:48:53.627Z,9.46
2023-11-23T12:51:21.850Z,9.48
2023-11-23T12:53:49.943Z,9.49
2023-11-23T12:56:18.248Z,9.44
2023-11-23T12:58:46.458Z,9.49
2023-11-23T13:01:16.045Z,9.57
2023-11-23T13:03:45.022Z,9.59
2023-11-23T13:06:16.694Z,9.56
2023-11-23T13:08:45.083Z,9.63
2023-11-23T13:11:14.084Z,9.72
2023-11-23T13:13:43.646Z,9.71
2023-11-23T13:16:11.879Z,9.52
2023-11-23T13:18:58.323Z,9.27
2023-11-23T13:21:30.860Z,9.49
2023-11-23T13:24:00.959Z,9.41
2023-11-23T13:26:29.815Z,9.42
2023-11-23T13:28:58.690Z,9.45
2023-11-23T13:31:28.933Z,9.46
2023-11-23T13:33:58.747Z,9.50
2023-11-23T13:36:28.544Z,9.58
2023-11-23T13:38:57.693Z,9.68
2023-11-23T13:41:26.057Z,9.59
2023-11-23T13:43:56.016Z,9.54
2023-11-23T13:46:26.098Z,9.51
2023-11-23T13:48:54.547Z,9.47
2023-11-23T13:51:24.937Z,9.50
2023-11-23T13:53:54.106Z,9.50
2023-11-23T13:56:24.033Z,9.48
2023-11-23T13:58:53.168Z,9.54
2023-11-23T14:01:21.549Z,9.56
2023-11-23T14:03:50.386Z,9.53
2023-11-23T14:06:19.160Z,9.48
2023-11-23T14:08:48.911Z,9.54
2023-11-23T14:11:19.548Z,9.53
2023-11-23T14:13:48.482Z,9.44
2023-11-23T14:16:16.722Z,9.44
2023-11-23T14:18:44.884Z,9.50
2023-11-23T14:21:13.589Z,9.47
2023-11-23T14:23:42.199Z,9.44
2023-11-23T14:26:12.537Z,9.35
2023-11-23T14:28:40.844Z,9.36
2023-11-23T14:31:12.671Z,9.31
2023-11-23T14:33:41.212Z,9.42
2023-11-23T14:36:10.407Z,9.33
2023-11-23T14:38:39.042Z,9.34
2023-11-23T14:41:09.453Z,9.27
2023-11-23T14:43:39.220Z,9.22
2023-11-23T14:46:08.877Z,9.14
2023-11-23T14:48:37.491Z,9.20
2023-11-23T14:51:06.206Z,9.13
2023-11-23T14:53:34.705Z,9.14
2023-11-23T14:56:03.900Z,9.19
2023-11-23T14:58:32.973Z,9.35
2023-11-23T15:01:02.597Z,9.18
2023-11-23T15:03:33.143Z,9.21
2023-11-23T15:06:02.054Z,9.10
2023-11-23T15:08:30.455Z,9.09
2023-11-23T15:10:58.731Z,9.02
2023-11-23T15:13:35.820Z,9.01
2023-11-23T15:16:09.402Z,8.93
2023-11-23T15:18:38.487Z,9.22
2023-11-23T15:21:07.111Z,9.33
2023-11-23T15:23:35.780Z,9.24
2023-11-23T15:26:04.910Z,9.21
2023-11-23T15:28:33.185Z,9.21
2023-11-23T15:31:01.788Z,9.15
2023-11-23T15:33:32.140Z,9.27
2023-11-23T15:36:00.380Z,9.25
2023-11-23T15:38:28.704Z,9.14
2023-11-23T15:40:57.261Z,9.23
2023-11-23T15:43:25.591Z,9.20
2023-11-23T15:45:54.820Z,9.19
2023-11-23T15:48:23.405Z,9.07
2023-11-23T15:50:52.944Z,9.03
2023-11-23T15:53:22.360Z,8.94
2023-11-23T15:55:52.210Z,8.93
2023-11-23T15:58:20.617Z,8.87
2023-11-23T16:00:48.835Z,8.91
2023-11-23T16:03:17.210Z,8.83
2023-11-23T16:05:45.762Z,8.85
2023-11-23T16:08:16.526Z,8.91
2023-11-23T16:10:44.723Z,8.98
2023-11-23T16:13:22.145Z,8.94
2023-11-23T16:15:50.999Z,8.90
2023-11-23T16:18:19.944Z,8.90
2023-11-23T16:20:48.465Z,8.91
2023-11-23T16:23:18.482Z,8.79
2023-11-23T16:25:46.827Z,8.82
2023-11-23T16:28:15.385Z,8.77
2023-11-23T16:30:44.198Z,8.82
2023-11-23T16:33:12.557Z,8.85
2023-11-23T16:35:40.833Z,8.75
2023-11-23T16:38:10.311Z,8.71
2023-11-23T16:40:39.921Z,8.80
2023-11-23T16:43:08.521Z,8.81
2023-11-23T16:45:36.939Z,8.80
2023-11-23T16:48:07.794Z,8.84
2023-11-23T16:50:36.316Z,8.77
2023-11-23T16:53:04.785Z,8.84
2023-11-23T16:55:33.525Z,8.82
2023-11-23T16:58:06.869Z,8.80
2023-11-23T17:00:35.565Z,8.78
2023-11-23T17:03:06.333Z,8.79
2023-11-23T17:05:34.932Z,8.85
2023-11-23T17:08:06.199Z,8.86
2023-11-23T17:10:34.870Z,8.83
2023-11-23T17:13:05.918Z,8.79
2023-11-23T17:15:34.183Z,8.77
2023-11-23T17:18:02.428Z,8.82
2023-11-23T17:20:30.855Z,8.84
2023-11-23T17:23:02.785Z,8.88
2023-11-23T17:25:31.891Z,8.91
2023-11-23T17:28:00.147Z,8.91
2023-11-23T17:30:30.120Z,8.82
2023-11-23T17:32:58.395Z,8.83
2023-11-23T17:35:27.269Z,8.78
2023-11-23T17:37:57.434Z,8.87
2023-11-23T17:40:26.204Z,8.86
2023-11-23T17:42:54.514Z,8.77
2023-11-23T17:45:22.971Z,8.76
2023-11-23T17:47:53.479Z,8.83
2023-11-23T17:50:21.868Z,8.77
2023-11-23T17:52:50.112Z,8.67
2023-11-23T17:55:18.673Z,8.62
2023-11-23T17:57:46.957Z,8.66
2023-11-23T18:00:16.640Z,8.70
2023-11-23T18:02:45.265Z,8.65
2023-11-23T18:05:15.672Z,8.54
2023-11-23T18:07:43.985Z,8.60
2023-11-23T18:10:16.116Z,8.59
2023-11-23T18:12:45.683Z,8.56
2023-11-23T18:15:14.342Z,8.53
2023-11-23T18:17:43.472Z,8.39
2023-11-23T18:20:14.541Z,8.44
2023-11-23T18:22:44.543Z,8.39
2023-11-23T18:25:13.990Z,8.40
2023-11-23T18:27:42.144Z,8.44
2023-11-23T18:30:13.381Z,8.65
2023-11-23T18:32:42.411Z,8.73
2023-11-23T18:35:12.201Z,8.69
2023-11-23T18:37:40.521Z,8.63
2023-11-23T18:40:14.544Z,8.54
2023-11-23T18:42:44.212Z,8.64
2023-11-23T18:45:14.232Z,8.61
2023-11-23T18:47:43.667Z,8.67
2023-11-23T18:50:12.903Z,8.63
2023-11-23T18:52:41.665Z,8.52
2023-11-23T18:55:16.110Z,8.44
2023-11-23T18:57:45.081Z,8.52
2023-11-23T19:00:14.722Z,8.58
2023-11-23T19:02:43.748Z,8.41
2023-11-23T19:05:16.565Z,8.43
2023-11-23T19:07:45.729Z,8.37
2023-11-23T19:10:17.146Z,8.55
2023-11-23T19:12:51.135Z,8.56
2023-11-23T19:15:21.657Z,8.54
2023-11-23T19:17:51.776Z,8.46
2023-11-23T19:20:23.297Z,8.42
2023-11-23T19:22:52.036Z,8.38
2023-11-23T19:25:26.052Z,8.46
2023-11-23T19:27:57.040Z,8.42
2023-11-23T19:30:27.136Z,8.45
2023-11-23T19:32:57.282Z,8.47
2023-11-23T19:35:27.055Z,8.41
2023-11-23T19:37:56.074Z,8.37
2023-11-23T19:40:27.033Z,8.37
2023-11-23T19:42:59.416Z,8.37
2023-11-23T19:45:31.586Z,8.32
2023-11-23T19:48:00.537Z,8.31
2023-11-23T19:50:30.103Z,8.20
2023-11-23T19:53:01.428Z,8.30
2023-11-23T19:55:31.006Z,8.35
2023-11-23T19:58:01.688Z,8.21
2023-11-23T20:00:31.896Z,8.07
2023-11-23T20:03:00.762Z,8.04
2023-11-23T20:05:29.211Z,8.10
2023-11-23T20:08:00.557Z,8.16
2023-11-23T20:10:30.348Z,8.34
2023-11-23T20:13:00.727Z,8.22
2023-11-23T20:15:29.661Z,8.34
2023-11-23T20:17:57.969Z,8.28
2023-11-23T20:20:26.208Z,8.32
2023-11-23T20:22:54.370Z,8.19
2023-11-23T20:25:22.928Z,8.20
2023-11-23T20:27:52.821Z,8.28
2023-11-23T20:30:21.308Z,8.25
2023-11-23T20:32:50.035Z,8.17
2023-11-23T20:35:19.401Z,8.17
2023-11-23T20:37:47.727Z,8.18
2023-11-23T20:40:15.948Z,8.22
2023-11-23T20:42:45.111Z,8.11
2023-11-23T20:45:15.096Z,7.96
2023-11-23T20:47:44.567Z,8.07
2023-11-23T20:50:13.154Z,8.16
2023-11-23T20:52:41.826Z,8.23
2023-11-23T20:55:14.006Z,8.09
2023-11-23T20:57:43.750Z,7.93
2023-11-23T21:00:17.494Z,7.87
2023-11-23T21:02:46.943Z,7.95
2023-11-23T21:05:17.494Z,7.93
2023-11-23T21:07:46.430Z,8.05
2023-11-23T21:10:17.027Z,8.15
2023-11-23T21:12:45.506Z,8.11
2023-11-23T21:15:15.230Z,8.16
2023-11-23T21:17:44.806Z,8.11
2023-11-23T21:20:14.671Z,8.11
2023-11-23T21:22:45.397Z,8.06
2023-11-23T21:25:13.721Z,7.91
2023-11-23T21:27:43.559Z,8.01
2023-11-23T21:30:12.713Z,8.01
2023-11-23T21:32:43.120Z,8.01
2023-11-23T21:35:11.716Z,8.03
2023-11-23T21:37:42.866Z,8.04
2023-11-23T21:40:13.259Z,7.96
2023-11-23T21:42:41.559Z,8.01
2023-11-23T21:45:10.574Z,7.90
2023-11-23T21:47:40.108Z,7.92
2023-11-23T21:50:12.093Z,8.04
2023-11-23T21:52:40.885Z,7.95
2023-11-23T21:55:12.475Z,7.92
2023-11-23T21:57:41.383Z,7.79
2023-11-23T22:00:10.743Z,7.87
2023-11-23T22:02:41.122Z,8.02
2023-11-23T22:05:14.817Z,7.97
2023-11-23T22:07:43.134Z,7.86
2023-11-23T22:10:11.479Z,7.89
2023-11-23T22:12:40.905Z,7.84
2023-11-23T22:15:09.859Z,7.86
2023-11-23T22:17:38.921Z,7.86
2023-11-23T22:20:09.594Z,7.88
2023-11-23T22:22:40.027Z,7.95
2023-11-23T22:25:10.380Z,7.91
2023-11-23T22:27:40.601Z,7.92
2023-11-23T22:30:11.133Z,7.96
2023-11-23T22:32:42.604Z,7.82
2023-11-23T22:35:12.340Z,7.93
2023-11-23T22:37:42.517Z,7.88
2023-11-23T22:40:12.336Z,7.94
2023-11-23T22:42:41.288Z,7.92
2023-11-23T22:45:11.234Z,7.86
2023-11-23T22:47:39.835Z,7.70
2023-11-23T22:50:10.287Z,7.77
2023-11-23T22:52:39.164Z,7.76
2023-11-23T22:55:09.955Z,7.80
2023-11-23T22:57:38.334Z,7.73
2023-11-23T23:00:25.711Z,7.66
2023-11-23T23:02:54.513Z,7.66
2023-11-23T23:05:27.748Z,7.60
2023-11-23T23:07:57.874Z,7.67
2023-11-23T23:10:31.995Z,7.66
2023-11-23T23:13:00.244Z,7.65
2023-11-23T23:15:28.536Z,7.59
2023-11-23T23:17:57.308Z,7.48
2023-11-23T23:20:25.880Z,7.46
2023-11-23T23:22:54.454Z,7.37
2023-11-23T23:25:22.884Z,7.36
2023-11-23T23:27:53.179Z,7.39
2023-11-23T23:30:21.959Z,7.41
2023-11-23T23:32:50.812Z,7.36
2023-11-23T23:35:19.584Z,7.52
2023-11-23T23:37:47.842Z,7.56
2023-11-23T23:40:16.033Z,7.50
2023-11-23T23:42:44.379Z,7.44
2023-11-23T23:45:14.135Z,7.36
2023-11-23T23:47:45.736Z,7.33
2023-11-23T23:50:14.063Z,7.35
2023-11-23T23:52:42.324Z,7.26
2023-11-23T23:55:10.873Z,7.21
2023-11-23T23:57:39.191Z,7.13
